sensor_id;sensor_type;location;lat;lon;timestamp;pressure;altitude;pressure_sealevel;temperature;humidity
44453;BME280;30155;52.164;21.236;2024-03-08T00:02:31;101477.73;;;-3.31;70.29
44453;BME280;30155;52.164;21.236;2024-03-08T00:07:24;101468.89;;;-3.37;70.39
44453;BME280;30155;52.164;21.236;2024-03-08T00:12:19;101467.52;;;-3.39;70.73
44453;BME280;30155;52.164;21.236;2024-03-08T00:17:12;101465.82;;;-3.43;70.90
44453;BME280;30155;52.164;21.236;2024-03-08T00:22:05;101463.21;;;-3.50;70.62
44453;BME280;30155;52.164;21.236;2024-03-08T00:26:57;101460.10;;;-3.55;70.93
44453;BME280;30155;52.164;21.236;2024-03-08T00:31:51;101462.05;;;-3.60;70.91
44453;BME280;30155;52.164;21.236;2024-03-08T00:36:43;101465.11;;;-3.64;71.31
44453;BME280;30155;52.164;21.236;2024-03-08T00:41:36;101466.58;;;-3.66;71.19
44453;BME280;30155;52.164;21.236;2024-03-08T00:46:29;101460.74;;;-3.69;71.14
44453;BME280;30155;52.164;21.236;2024-03-08T00:51:23;101460.41;;;-3.73;71.34
44453;BME280;30155;52.164;21.236;2024-03-08T00:56:15;101461.18;;;-3.78;71.06
44453;BME280;30155;52.164;21.236;2024-03-08T01:01:08;101457.49;;;-3.81;71.37
44453;BME280;30155;52.164;21.236;2024-03-08T01:06:01;101458.55;;;-3.85;71.34
44453;BME280;30155;52.164;21.236;2024-03-08T01:10:54;101455.73;;;-3.90;71.35
44453;BME280;30155;52.164;21.236;2024-03-08T01:15:47;101457.20;;;-3.95;71.34
44453;BME280;30155;52.164;21.236;2024-03-08T01:20:40;101453.88;;;-3.98;71.10
44453;BME280;30155;52.164;21.236;2024-03-08T01:25:34;101450.46;;;-4.04;71.07
44453;BME280;30155;52.164;21.236;2024-03-08T01:30:26;101442.66;;;-4.08;71.07
44453;BME280;30155;52.164;21.236;2024-03-08T01:35:19;101446.02;;;-4.16;71.41
44453;BME280;30155;52.164;21.236;2024-03-08T01:40:14;101446.25;;;-4.22;71.04
44453;BME280;30155;52.164;21.236;2024-03-08T01:45:08;101449.98;;;-4.25;71.40
44453;BME280;30155;52.164;21.236;2024-03-08T01:50:02;101446.44;;;-4.27;71.41
44453;BME280;30155;52.164;21.236;2024-03-08T01:54:56;101442.98;;;-4.30;71.28
44453;BME280;30155;52.164;21.236;2024-03-08T01:59:53;101442.25;;;-4.34;71.43
44453;BME280;30155;52.164;21.236;2024-03-08T02:04:48;101435.22;;;-4.41;71.30
44453;BME280;30155;52.164;21.236;2024-03-08T02:09:44;101438.08;;;-4.43;71.46
44453;BME280;30155;52.164;21.236;2024-03-08T02:14:37;101427.59;;;-4.49;71.30
44453;BME280;30155;52.164;21.236;2024-03-08T02:19:32;101429.55;;;-4.52;71.68
44453;BME280;30155;52.164;21.236;2024-03-08T02:24:27;101430.23;;;-4.51;71.65
44453;BME280;30155;52.164;21.236;2024-03-08T02:29:20;101422.02;;;-4.56;71.67
44453;BME280;30155;52.164;21.236;2024-03-08T02:34:13;101423.00;;;-4.63;71.74
44453;BME280;30155;52.164;21.236;2024-03-08T02:39:06;101416.80;;;-4.66;71.97
44453;BME280;30155;52.164;21.236;2024-03-08T02:43:59;101414.05;;;-4.70;71.43
44453;BME280;30155;52.164;21.236;2024-03-08T02:48:52;101415.27;;;-4.77;71.81
44453;BME280;30155;52.164;21.236;2024-03-08T02:53:45;101411.98;;;-4.80;71.32
44453;BME280;30155;52.164;21.236;2024-03-08T02:58:40;101408.95;;;-4.86;71.87
44453;BME280;30155;52.164;21.236;2024-03-08T03:03:34;101409.03;;;-4.92;71.70
44453;BME280;30155;52.164;21.236;2024-03-08T03:08:27;101404.92;;;-4.99;71.87
44453;BME280;30155;52.164;21.236;2024-03-08T03:13:19;101406.47;;;-5.01;72.35
44453;BME280;30155;52.164;21.236;2024-03-08T03:18:12;101408.86;;;-4.98;72.05
44453;BME280;30155;52.164;21.236;2024-03-08T03:23:06;101406.85;;;-5.01;72.30
44453;BME280;30155;52.164;21.236;2024-03-08T03:28:01;101406.39;;;-5.05;72.12
44453;BME280;30155;52.164;21.236;2024-03-08T03:32:54;101405.96;;;-5.06;72.09
44453;BME280;30155;52.164;21.236;2024-03-08T03:37:50;101405.60;;;-5.08;72.06
44453;BME280;30155;52.164;21.236;2024-03-08T03:42:53;101402.73;;;-5.12;72.01
44453;BME280;30155;52.164;21.236;2024-03-08T03:47:46;101395.73;;;-5.14;72.26
44453;BME280;30155;52.164;21.236;2024-03-08T03:52:39;101397.25;;;-5.18;71.93
44453;BME280;30155;52.164;21.236;2024-03-08T03:57:33;101397.58;;;-5.24;71.99
44453;BME280;30155;52.164;21.236;2024-03-08T04:02:26;101394.98;;;-5.26;72.09
44453;BME280;30155;52.164;21.236;2024-03-08T04:07:19;101389.52;;;-5.28;71.99
44453;BME280;30155;52.164;21.236;2024-03-08T04:12:12;101392.16;;;-5.33;72.19
44453;BME280;30155;52.164;21.236;2024-03-08T04:17:07;101388.36;;;-5.36;72.28
44453;BME280;30155;52.164;21.236;2024-03-08T04:22:01;101386.77;;;-5.37;72.17
44453;BME280;30155;52.164;21.236;2024-03-08T04:26:54;101382.00;;;-5.39;71.93
44453;BME280;30155;52.164;21.236;2024-03-08T04:31:47;101387.09;;;-5.44;71.90
44453;BME280;30155;52.164;21.236;2024-03-08T04:36:39;101383.23;;;-5.49;72.18
44453;BME280;30155;52.164;21.236;2024-03-08T04:41:32;101383.94;;;-5.55;72.15
44453;BME280;30155;52.164;21.236;2024-03-08T04:46:26;101384.71;;;-5.56;72.46
44453;BME280;30155;52.164;21.236;2024-03-08T04:51:20;101384.84;;;-5.56;72.47
44453;BME280;30155;52.164;21.236;2024-03-08T04:56:13;101384.27;;;-5.61;72.14
44453;BME280;30155;52.164;21.236;2024-03-08T05:01:06;101385.35;;;-5.63;72.50
44453;BME280;30155;52.164;21.236;2024-03-08T05:06:02;101384.20;;;-5.63;72.45
44453;BME280;30155;52.164;21.236;2024-03-08T05:10:55;101384.98;;;-5.66;72.52
44453;BME280;30155;52.164;21.236;2024-03-08T05:15:49;101382.21;;;-5.68;72.48
44453;BME280;30155;52.164;21.236;2024-03-08T05:20:42;101383.97;;;-5.67;72.57
44453;BME280;30155;52.164;21.236;2024-03-08T05:25:35;101384.64;;;-5.64;72.64
44453;BME280;30155;52.164;21.236;2024-03-08T05:30:28;101386.00;;;-5.58;72.70
44453;BME280;30155;52.164;21.236;2024-03-08T05:35:21;101384.13;;;-5.53;72.53
44453;BME280;30155;52.164;21.236;2024-03-08T05:40:14;101385.36;;;-5.49;72.55
44453;BME280;30155;52.164;21.236;2024-03-08T05:45:10;101383.23;;;-5.39;72.52
44453;BME280;30155;52.164;21.236;2024-03-08T05:50:20;101386.58;;;-5.29;72.88
44453;BME280;30155;52.164;21.236;2024-03-08T05:55:21;101381.36;;;-5.16;72.55
44453;BME280;30155;52.164;21.236;2024-03-08T06:00:17;101378.39;;;-5.10;72.37
44453;BME280;30155;52.164;21.236;2024-03-08T06:05:11;101377.69;;;-5.05;72.50
44453;BME280;30155;52.164;21.236;2024-03-08T06:10:04;101381.58;;;-4.97;72.77
44453;BME280;30155;52.164;21.236;2024-03-08T06:14:58;101382.80;;;-4.88;72.75
44453;BME280;30155;52.164;21.236;2024-03-08T06:19:51;101384.41;;;-4.78;73.07
44453;BME280;30155;52.164;21.236;2024-03-08T06:24:44;101385.88;;;-4.67;73.17
44453;BME280;30155;52.164;21.236;2024-03-08T06:29:37;101390.34;;;-4.59;73.15
44453;BME280;30155;52.164;21.236;2024-03-08T06:34:32;101386.36;;;-4.46;73.53
44453;BME280;30155;52.164;21.236;2024-03-08T06:39:26;101385.86;;;-4.33;73.34
44453;BME280;30155;52.164;21.236;2024-03-08T06:44:20;101381.52;;;-4.16;73.66
44453;BME280;30155;52.164;21.236;2024-03-08T06:49:14;101380.92;;;-3.65;73.46
44453;BME280;30155;52.164;21.236;2024-03-08T06:54:07;101376.84;;;-2.70;73.07
44453;BME280;30155;52.164;21.236;2024-03-08T06:59:01;101373.27;;;-1.18;71.72
44453;BME280;30155;52.164;21.236;2024-03-08T07:03:54;101365.97;;;-0.12;70.05
44453;BME280;30155;52.164;21.236;2024-03-08T07:08:48;101360.57;;;0.55;69.12
44453;BME280;30155;52.164;21.236;2024-03-08T07:13:41;101368.58;;;-0.02;69.63
44453;BME280;30155;52.164;21.236;2024-03-08T07:18:35;101367.06;;;-0.47;70.18
44453;BME280;30155;52.164;21.236;2024-03-08T07:23:31;101360.71;;;-0.77;70.58
44453;BME280;30155;52.164;21.236;2024-03-08T07:28:55;101367.21;;;-0.95;71.37
44453;BME280;30155;52.164;21.236;2024-03-08T07:33:48;101364.96;;;-1.04;71.86
44453;BME280;30155;52.164;21.236;2024-03-08T07:38:42;101366.25;;;-1.08;72.06
44453;BME280;30155;52.164;21.236;2024-03-08T07:43:35;101362.27;;;-1.04;72.61
44453;BME280;30155;52.164;21.236;2024-03-08T07:48:28;101356.99;;;-0.62;72.62
44453;BME280;30155;52.164;21.236;2024-03-08T07:53:22;101351.67;;;-0.07;72.77
44453;BME280;30155;52.164;21.236;2024-03-08T07:58:16;101348.06;;;1.98;70.81
44453;BME280;30155;52.164;21.236;2024-03-08T08:03:09;101332.70;;;3.72;68.61
44453;BME280;30155;52.164;21.236;2024-03-08T08:08:02;101332.38;;;6.05;65.51
44453;BME280;30155;52.164;21.236;2024-03-08T08:12:58;101323.38;;;7.50;63.79
44453;BME280;30155;52.164;21.236;2024-03-08T08:17:53;101319.20;;;8.81;61.26
44453;BME280;30155;52.164;21.236;2024-03-08T08:22:46;101316.33;;;9.02;60.09
44453;BME280;30155;52.164;21.236;2024-03-08T08:27:40;101315.20;;;9.91;58.10
44453;BME280;30155;52.164;21.236;2024-03-08T08:32:35;101308.04;;;10.93;56.41
44453;BME280;30155;52.164;21.236;2024-03-08T08:37:28;101307.95;;;10.61;56.20
44453;BME280;30155;52.164;21.236;2024-03-08T08:42:21;101299.89;;;10.52;56.44
44453;BME280;30155;52.164;21.236;2024-03-08T08:47:14;101297.77;;;10.43;55.76
44453;BME280;30155;52.164;21.236;2024-03-08T08:52:10;101291.02;;;10.90;53.33
44453;BME280;30155;52.164;21.236;2024-03-08T08:57:08;101284.20;;;11.54;52.50
44453;BME280;30155;52.164;21.236;2024-03-08T09:02:02;101279.13;;;11.30;52.96
44453;BME280;30155;52.164;21.236;2024-03-08T09:06:55;101276.02;;;12.93;51.54
44453;BME280;30155;52.164;21.236;2024-03-08T09:11:48;101271.54;;;14.18;49.22
44453;BME280;30155;52.164;21.236;2024-03-08T09:16:41;101274.17;;;12.83;48.83
44453;BME280;30155;52.164;21.236;2024-03-08T09:21:34;101266.24;;;12.36;48.65
44453;BME280;30155;52.164;21.236;2024-03-08T09:26:28;101260.90;;;12.48;47.22
44453;BME280;30155;52.164;21.236;2024-03-08T09:31:21;101260.14;;;13.07;47.25
44453;BME280;30155;52.164;21.236;2024-03-08T09:36:15;101254.05;;;12.85;47.59
44453;BME280;30155;52.164;21.236;2024-03-08T09:41:08;101250.81;;;13.73;47.04
44453;BME280;30155;52.164;21.236;2024-03-08T09:46:03;101241.27;;;14.58;46.21
44453;BME280;30155;52.164;21.236;2024-03-08T09:50:57;101237.91;;;15.25;43.73
44453;BME280;30155;52.164;21.236;2024-03-08T09:55:50;101237.55;;;15.47;42.98
44453;BME280;30155;52.164;21.236;2024-03-08T10:00:43;101235.00;;;15.65;42.20
44453;BME280;30155;52.164;21.236;2024-03-08T10:05:36;101231.20;;;15.76;41.54
44453;BME280;30155;52.164;21.236;2024-03-08T10:10:29;101224.40;;;16.54;40.82
44453;BME280;30155;52.164;21.236;2024-03-08T10:15:22;101226.87;;;16.78;39.99
44453;BME280;30155;52.164;21.236;2024-03-08T10:20:18;101217.84;;;17.82;38.52
44453;BME280;30155;52.164;21.236;2024-03-08T10:25:12;101220.14;;;17.31;37.96
44453;BME280;30155;52.164;21.236;2024-03-08T10:30:06;101218.48;;;16.96;37.80
44453;BME280;30155;52.164;21.236;2024-03-08T10:35:04;101213.56;;;16.80;37.67
44453;BME280;30155;52.164;21.236;2024-03-08T10:40:05;101210.58;;;17.03;37.15
44453;BME280;30155;52.164;21.236;2024-03-08T10:45:06;101207.95;;;16.61;36.98
44453;BME280;30155;52.164;21.236;2024-03-08T10:50:20;101199.02;;;17.56;35.81
44453;BME280;30155;52.164;21.236;2024-03-08T10:55:14;101187.81;;;18.46;35.13
44453;BME280;30155;52.164;21.236;2024-03-08T11:00:10;101183.35;;;19.42;35.41
44453;BME280;30155;52.164;21.236;2024-03-08T11:05:10;101182.52;;;19.79;35.11
44453;BME280;30155;52.164;21.236;2024-03-08T11:10:04;101180.86;;;21.05;34.80
44453;BME280;30155;52.164;21.236;2024-03-08T11:15:10;101170.41;;;22.01;33.65
44453;BME280;30155;52.164;21.236;2024-03-08T11:20:09;101169.59;;;22.21;32.44
44453;BME280;30155;52.164;21.236;2024-03-08T11:25:09;101161.16;;;22.49;32.65
44453;BME280;30155;52.164;21.236;2024-03-08T11:30:06;101157.26;;;22.77;32.07
44453;BME280;30155;52.164;21.236;2024-03-08T11:35:21;101149.52;;;22.75;32.10
44453;BME280;30155;52.164;21.236;2024-03-08T11:40:15;101149.78;;;22.78;31.91
44453;BME280;30155;52.164;21.236;2024-03-08T11:45:08;101146.23;;;22.79;31.65
44453;BME280;30155;52.164;21.236;2024-03-08T11:50:03;101140.33;;;22.56;31.23
44453;BME280;30155;52.164;21.236;2024-03-08T11:54:56;101134.91;;;22.18;31.22
44453;BME280;30155;52.164;21.236;2024-03-08T11:59:54;101125.91;;;21.80;31.30
44453;BME280;30155;52.164;21.236;2024-03-08T12:04:56;101123.29;;;21.11;32.13
44453;BME280;30155;52.164;21.236;2024-03-08T12:10:14;101123.94;;;20.04;32.91
44453;BME280;30155;52.164;21.236;2024-03-08T12:15:09;101122.66;;;18.65;33.70
44453;BME280;30155;52.164;21.236;2024-03-08T12:20:25;101122.86;;;17.40;34.68
44453;BME280;30155;52.164;21.236;2024-03-08T12:25:20;101119.60;;;16.27;34.90
44453;BME280;30155;52.164;21.236;2024-03-08T12:30:21;101116.63;;;15.41;35.53
44453;BME280;30155;52.164;21.236;2024-03-08T12:35:14;101117.20;;;14.52;35.11
44453;BME280;30155;52.164;21.236;2024-03-08T12:40:09;101109.19;;;14.11;35.53
44453;BME280;30155;52.164;21.236;2024-03-08T12:45:02;101103.79;;;13.43;35.35
44453;BME280;30155;52.164;21.236;2024-03-08T12:49:57;101101.14;;;13.26;36.68
44453;BME280;30155;52.164;21.236;2024-03-08T12:54:51;101097.44;;;13.34;37.30
44453;BME280;30155;52.164;21.236;2024-03-08T12:59:44;101088.70;;;13.33;36.50
44453;BME280;30155;52.164;21.236;2024-03-08T13:04:37;101084.86;;;13.19;36.93
44453;BME280;30155;52.164;21.236;2024-03-08T13:09:30;101080.45;;;13.00;37.05
44453;BME280;30155;52.164;21.236;2024-03-08T13:14:23;101077.36;;;13.04;37.95
44453;BME280;30155;52.164;21.236;2024-03-08T13:19:16;101068.35;;;13.07;37.27
44453;BME280;30155;52.164;21.236;2024-03-08T13:24:09;101057.55;;;12.92;37.06
44453;BME280;30155;52.164;21.236;2024-03-08T13:29:02;101054.78;;;12.80;37.15
44453;BME280;30155;52.164;21.236;2024-03-08T13:33:58;101049.39;;;12.66;37.28
44453;BME280;30155;52.164;21.236;2024-03-08T13:38:51;101044.64;;;12.50;37.42
44453;BME280;30155;52.164;21.236;2024-03-08T13:43:46;101044.48;;;12.40;37.59
44453;BME280;30155;52.164;21.236;2024-03-08T13:48:41;101039.16;;;12.20;37.31
44453;BME280;30155;52.164;21.236;2024-03-08T13:53:34;101035.73;;;12.02;37.86
44453;BME280;30155;52.164;21.236;2024-03-08T13:58:28;101029.20;;;11.86;38.43
44453;BME280;30155;52.164;21.236;2024-03-08T14:03:21;101031.71;;;11.70;38.37
44453;BME280;30155;52.164;21.236;2024-03-08T14:08:15;101025.55;;;11.47;38.69
44453;BME280;30155;52.164;21.236;2024-03-08T14:13:09;101022.65;;;11.21;39.28
44453;BME280;30155;52.164;21.236;2024-03-08T14:18:03;101022.41;;;11.00;38.61
44453;BME280;30155;52.164;21.236;2024-03-08T14:22:59;101022.71;;;10.90;38.65
44453;BME280;30155;52.164;21.236;2024-03-08T14:27:53;101019.02;;;10.78;39.37
44453;BME280;30155;52.164;21.236;2024-03-08T14:32:50;101016.20;;;10.67;39.26
44453;BME280;30155;52.164;21.236;2024-03-08T14:37:45;101013.20;;;10.57;39.33
44453;BME280;30155;52.164;21.236;2024-03-08T14:42:41;101019.28;;;10.49;40.05
44453;BME280;30155;52.164;21.236;2024-03-08T14:47:36;101009.36;;;10.48;40.40
44453;BME280;30155;52.164;21.236;2024-03-08T14:52:29;101005.06;;;10.34;40.28
44453;BME280;30155;52.164;21.236;2024-03-08T14:57:23;101001.77;;;10.19;40.19
44453;BME280;30155;52.164;21.236;2024-03-08T15:02:17;101000.22;;;10.05;40.44
44453;BME280;30155;52.164;21.236;2024-03-08T15:07:16;100996.05;;;9.83;41.23
44453;BME280;30155;52.164;21.236;2024-03-08T15:12:11;100991.97;;;9.58;40.89
44453;BME280;30155;52.164;21.236;2024-03-08T15:17:04;100989.69;;;9.43;40.99
44453;BME280;30155;52.164;21.236;2024-03-08T15:22:02;100989.85;;;9.23;41.58
44453;BME280;30155;52.164;21.236;2024-03-08T15:26:55;100989.49;;;8.97;42.21
44453;BME280;30155;52.164;21.236;2024-03-08T15:31:49;100986.93;;;8.68;42.72
44453;BME280;30155;52.164;21.236;2024-03-08T15:36:43;100991.80;;;8.29;43.49
44453;BME280;30155;52.164;21.236;2024-03-08T15:41:40;100992.91;;;7.93;44.73
44453;BME280;30155;52.164;21.236;2024-03-08T15:46:35;100992.31;;;7.59;45.66
44453;BME280;30155;52.164;21.236;2024-03-08T15:51:28;100988.63;;;7.21;46.25
44453;BME280;30155;52.164;21.236;2024-03-08T15:56:22;100992.61;;;6.83;46.98
44453;BME280;30155;52.164;21.236;2024-03-08T16:01:15;100990.78;;;6.52;47.36
44453;BME280;30155;52.164;21.236;2024-03-08T16:06:09;100993.30;;;6.24;47.99
44453;BME280;30155;52.164;21.236;2024-03-08T16:11:02;100993.33;;;5.94;48.88
44453;BME280;30155;52.164;21.236;2024-03-08T16:15:58;100992.55;;;5.67;49.78
44453;BME280;30155;52.164;21.236;2024-03-08T16:20:55;100995.35;;;5.39;50.16
44453;BME280;30155;52.164;21.236;2024-03-08T16:25:48;100995.70;;;5.07;50.61
44453;BME280;30155;52.164;21.236;2024-03-08T16:30:43;100997.55;;;4.82;51.05
44453;BME280;30155;52.164;21.236;2024-03-08T16:35:40;100998.50;;;4.62;51.78
44453;BME280;30155;52.164;21.236;2024-03-08T16:40:35;101004.39;;;4.40;52.38
44453;BME280;30155;52.164;21.236;2024-03-08T16:45:28;101003.21;;;4.19;53.04
44453;BME280;30155;52.164;21.236;2024-03-08T16:50:21;101007.16;;;3.97;53.27
44453;BME280;30155;52.164;21.236;2024-03-08T16:55:15;101003.70;;;3.72;53.44
44453;BME280;30155;52.164;21.236;2024-03-08T17:00:08;101001.66;;;3.48;53.65
44453;BME280;30155;52.164;21.236;2024-03-08T17:05:04;101002.87;;;3.27;54.39
44453;BME280;30155;52.164;21.236;2024-03-08T17:09:57;101006.91;;;3.09;54.60
44453;BME280;30155;52.164;21.236;2024-03-08T17:14:50;101002.95;;;2.96;55.06
44453;BME280;30155;52.164;21.236;2024-03-08T17:19:43;101003.00;;;2.84;55.88
44453;BME280;30155;52.164;21.236;2024-03-08T17:24:36;101004.63;;;2.69;55.98
44453;BME280;30155;52.164;21.236;2024-03-08T17:29:30;101000.83;;;2.53;56.34
44453;BME280;30155;52.164;21.236;2024-03-08T17:34:23;100997.77;;;2.34;56.60
44453;BME280;30155;52.164;21.236;2024-03-08T17:39:19;101003.84;;;2.17;56.88
44453;BME280;30155;52.164;21.236;2024-03-08T17:44:18;101003.52;;;2.02;57.24
44453;BME280;30155;52.164;21.236;2024-03-08T17:49:11;101005.89;;;1.89;57.82
44453;BME280;30155;52.164;21.236;2024-03-08T17:54:05;101008.80;;;1.80;58.41
44453;BME280;30155;52.164;21.236;2024-03-08T17:59:02;101008.98;;;1.74;58.69
44453;BME280;30155;52.164;21.236;2024-03-08T18:03:58;101007.90;;;1.67;58.58
44453;BME280;30155;52.164;21.236;2024-03-08T18:08:52;101009.74;;;1.55;58.86
44453;BME280;30155;52.164;21.236;2024-03-08T18:13:45;101009.04;;;1.42;59.13
44453;BME280;30155;52.164;21.236;2024-03-08T18:18:39;101010.22;;;1.28;59.17
44453;BME280;30155;52.164;21.236;2024-03-08T18:23:32;101008.88;;;1.19;59.55
44453;BME280;30155;52.164;21.236;2024-03-08T18:28:25;101006.95;;;1.07;59.82
44453;BME280;30155;52.164;21.236;2024-03-08T18:33:18;101006.02;;;0.97;60.14
44453;BME280;30155;52.164;21.236;2024-03-08T18:38:12;101018.36;;;0.89;60.55
44453;BME280;30155;52.164;21.236;2024-03-08T18:43:05;101016.61;;;0.86;60.42
44453;BME280;30155;52.164;21.236;2024-03-08T18:47:58;101018.31;;;0.80;60.50
44453;BME280;30155;52.164;21.236;2024-03-08T18:52:52;101009.20;;;0.70;60.73
44453;BME280;30155;52.164;21.236;2024-03-08T18:57:45;101008.23;;;0.60;60.82
44453;BME280;30155;52.164;21.236;2024-03-08T19:02:38;101007.45;;;0.50;61.17
44453;BME280;30155;52.164;21.236;2024-03-08T19:07:30;101007.97;;;0.42;61.34
44453;BME280;30155;52.164;21.236;2024-03-08T19:12:25;101010.66;;;0.36;61.19
44453;BME280;30155;52.164;21.236;2024-03-08T19:17:23;101014.73;;;0.25;61.19
44453;BME280;30155;52.164;21.236;2024-03-08T19:22:16;101007.09;;;0.14;61.69
44453;BME280;30155;52.164;21.236;2024-03-08T19:27:09;101006.52;;;0.08;61.47
44453;BME280;30155;52.164;21.236;2024-03-08T19:32:04;101005.23;;;0.01;61.56
44453;BME280;30155;52.164;21.236;2024-03-08T19:36:57;101005.52;;;-0.08;61.82
44453;BME280;30155;52.164;21.236;2024-03-08T19:41:50;101002.89;;;-0.14;61.80
44453;BME280;30155;52.164;21.236;2024-03-08T19:46:43;101000.77;;;-0.18;62.01
44453;BME280;30155;52.164;21.236;2024-03-08T19:51:36;101000.02;;;-0.27;62.20
44453;BME280;30155;52.164;21.236;2024-03-08T19:56:30;100996.26;;;-0.32;62.15
44453;BME280;30155;52.164;21.236;2024-03-08T20:01:23;100995.30;;;-0.34;62.45
44453;BME280;30155;52.164;21.236;2024-03-08T20:06:16;100992.64;;;-0.41;62.85
44453;BME280;30155;52.164;21.236;2024-03-08T20:11:10;100987.54;;;-0.46;62.95
44453;BME280;30155;52.164;21.236;2024-03-08T20:16:05;100989.55;;;-0.54;62.99
44453;BME280;30155;52.164;21.236;2024-03-08T20:21:01;100984.23;;;-0.62;63.26
44453;BME280;30155;52.164;21.236;2024-03-08T20:25:55;100976.57;;;-0.68;63.53
44453;BME280;30155;52.164;21.236;2024-03-08T20:30:48;100983.02;;;-0.76;63.66
44453;BME280;30155;52.164;21.236;2024-03-08T20:35:43;100981.84;;;-0.79;63.83
44453;BME280;30155;52.164;21.236;2024-03-08T20:40:37;100982.92;;;-0.77;64.01
44453;BME280;30155;52.164;21.236;2024-03-08T20:45:33;100977.73;;;-0.79;63.92
44453;BME280;30155;52.164;21.236;2024-03-08T20:50:26;100981.69;;;-0.78;64.06
44453;BME280;30155;52.164;21.236;2024-03-08T20:55:19;100976.70;;;-0.84;63.98
44453;BME280;30155;52.164;21.236;2024-03-08T21:00:14;100977.41;;;-0.91;64.07
44453;BME280;30155;52.164;21.236;2024-03-08T21:05:10;100980.79;;;-0.94;64.12
44453;BME280;30155;52.164;21.236;2024-03-08T21:10:03;100974.73;;;-1.01;64.14
44453;BME280;30155;52.164;21.236;2024-03-08T21:15:02;100978.80;;;-1.08;64.53
44453;BME280;30155;52.164;21.236;2024-03-08T21:19:55;100976.88;;;-1.14;64.44
44453;BME280;30155;52.164;21.236;2024-03-08T21:24:48;100978.74;;;-1.22;64.55
44453;BME280;30155;52.164;21.236;2024-03-08T21:29:41;100981.59;;;-1.30;64.68
44453;BME280;30155;52.164;21.236;2024-03-08T21:34:38;100982.09;;;-1.35;64.84
44453;BME280;30155;52.164;21.236;2024-03-08T21:39:31;100981.74;;;-1.38;65.11
44453;BME280;30155;52.164;21.236;2024-03-08T21:44:26;100977.02;;;-1.42;64.88
44453;BME280;30155;52.164;21.236;2024-03-08T21:49:20;100971.56;;;-1.47;65.06
44453;BME280;30155;52.164;21.236;2024-03-08T21:54:14;100965.98;;;-1.54;65.01
44453;BME280;30155;52.164;21.236;2024-03-08T21:59:09;100968.38;;;-1.59;65.24
44453;BME280;30155;52.164;21.236;2024-03-08T22:04:02;100967.84;;;-1.64;65.45
44453;BME280;30155;52.164;21.236;2024-03-08T22:08:55;100966.19;;;-1.71;65.66
44453;BME280;30155;52.164;21.236;2024-03-08T22:13:50;100967.83;;;-1.77;65.92
44453;BME280;30155;52.164;21.236;2024-03-08T22:18:43;100964.42;;;-1.79;65.88
44453;BME280;30155;52.164;21.236;2024-03-08T22:23:36;100962.16;;;-1.82;66.16
44453;BME280;30155;52.164;21.236;2024-03-08T22:28:30;100959.62;;;-1.87;66.12
44453;BME280;30155;52.164;21.236;2024-03-08T22:33:23;100959.74;;;-1.93;66.08
44453;BME280;30155;52.164;21.236;2024-03-08T22:38:16;100953.14;;;-1.97;66.29
44453;BME280;30155;52.164;21.236;2024-03-08T22:43:09;100952.06;;;-2.00;66.44
44453;BME280;30155;52.164;21.236;2024-03-08T22:48:02;100947.06;;;-2.06;66.51
44453;BME280;30155;52.164;21.236;2024-03-08T22:52:58;100944.03;;;-2.13;66.58
44453;BME280;30155;52.164;21.236;2024-03-08T22:57:53;100942.52;;;-2.19;66.75
44453;BME280;30155;52.164;21.236;2024-03-08T23:02:46;100940.45;;;-2.25;66.87
44453;BME280;30155;52.164;21.236;2024-03-08T23:07:39;100944.05;;;-2.29;66.91
44453;BME280;30155;52.164;21.236;2024-03-08T23:12:33;100944.39;;;-2.34;66.95
44453;BME280;30155;52.164;21.236;2024-03-08T23:17:27;100945.81;;;-2.38;67.09
44453;BME280;30155;52.164;21.236;2024-03-08T23:22:22;100943.69;;;-2.46;67.08
44453;BME280;30155;52.164;21.236;2024-03-08T23:27:15;100944.02;;;-2.53;67.28
44453;BME280;30155;52.164;21.236;2024-03-08T23:32:08;100941.52;;;-2.57;67.35
44453;BME280;30155;52.164;21.236;2024-03-08T23:37:02;100940.71;;;-2.61;67.50
44453;BME280;30155;52.164;21.236;2024-03-08T23:41:59;100939.02;;;-2.63;67.51
44453;BME280;30155;52.164;21.236;2024-03-08T23:46:51;100940.94;;;-2.67;67.57
44453;BME280;30155;52.164;21.236;2024-03-08T23:51:45;100939.04;;;-2.71;67.56
44453;BME280;30155;52.164;21.236;2024-03-08T23:56:40;100938.08;;;-2.74;67.99
